Tyndall Air Force Base

Airport
ICAO code: 
KPAM
Summary
ICAO Region: 
NAM
Territory: 
Location: 
Panama City, Florida,
Coordinates: 
Aerial View: 
30° 4' 20.536" N, 85° 35' 50.204" W
Airport LOS: 
Parallel Runway Operation
Metar
Observation
KPAM 021356Z 00000KT 10SM CLR 12/12 A3018 RMK AO2A SLP223 T01210115 $
Station
Tyndall Air Force Base
Date/Time
2021-12-02 13:56:00
Wind direction
Wind speed
00 kts
Lowest cloud amount
n/a
Temperature
12.1°C
Dew point
11.5°C
Humidity
96%
Weather condition
n/a

Description

Tyndall Air Force Base is a United States Air Force installation located 19 km east of the central business district of Panama City, Florida.

Climatology

Humid “subtropical” climate (Köppen climate classification Cfa) - characterized by hot, humid summers and cool winters. Significant amounts of precipitation occur in all seasons in most areas.

Runways

Designator Length Width Surface Rops
13R/31L 2784 46 PEM No/No
13L/31R 3049 61 CON No/No
Airport map: 
Aerial View: 

SKYbrary Partners:

Safety knowledge contributed by: